sensor_id;sensor_type;location;lat;lon;timestamp;temperature;humidity
24085;DHT22;12268;52.110;5.548;2022-12-20T00:01:24;12.60;99.90
24085;DHT22;12268;52.110;5.548;2022-12-20T00:03:52;12.70;99.90
24085;DHT22;12268;52.110;5.548;2022-12-20T00:06:19;12.70;99.90
24085;DHT22;12268;52.110;5.548;2022-12-20T00:08:45;12.70;99.90
24085;DHT22;12268;52.110;5.548;2022-12-20T00:11:11;12.70;99.90
24085;DHT22;12268;52.110;5.548;2022-12-20T00:13:37;12.70;99.90
24085;DHT22;12268;52.110;5.548;2022-12-20T00:16:10;12.90;99.90
24085;DHT22;12268;52.110;5.548;2022-12-20T00:18:37;12.80;99.90
24085;DHT22;12268;52.110;5.548;2022-12-20T00:21:05;12.70;99.90
24085;DHT22;12268;52.110;5.548;2022-12-20T00:23:31;12.80;99.90
24085;DHT22;12268;52.110;5.548;2022-12-20T00:26:05;12.80;99.90
24085;DHT22;12268;52.110;5.548;2022-12-20T00:28:32;12.90;99.90
24085;DHT22;12268;52.110;5.548;2022-12-20T00:30:57;13.00;99.90
24085;DHT22;12268;52.110;5.548;2022-12-20T00:33:23;13.00;99.90
24085;DHT22;12268;52.110;5.548;2022-12-20T00:35:49;12.90;99.90
24085;DHT22;12268;52.110;5.548;2022-12-20T00:38:14;12.80;99.90
24085;DHT22;12268;52.110;5.548;2022-12-20T00:40:40;12.90;99.90
24085;DHT22;12268;52.110;5.548;2022-12-20T00:43:05;13.00;99.90
24085;DHT22;12268;52.110;5.548;2022-12-20T00:45:31;13.00;99.90
24085;DHT22;12268;52.110;5.548;2022-12-20T00:47:56;13.10;99.90
24085;DHT22;12268;52.110;5.548;2022-12-20T00:50:22;13.10;99.90
24085;DHT22;12268;52.110;5.548;2022-12-20T00:52:47;13.00;99.90
24085;DHT22;12268;52.110;5.548;2022-12-20T00:55:13;13.00;99.90
24085;DHT22;12268;52.110;5.548;2022-12-20T00:57:38;13.10;99.90
24085;DHT22;12268;52.110;5.548;2022-12-20T01:00:04;13.10;99.90
24085;DHT22;12268;52.110;5.548;2022-12-20T01:02:31;13.00;99.90
24085;DHT22;12268;52.110;5.548;2022-12-20T01:04:56;13.10;99.90
24085;DHT22;12268;52.110;5.548;2022-12-20T01:07:22;13.10;99.90
24085;DHT22;12268;52.110;5.548;2022-12-20T01:09:49;13.10;99.90
24085;DHT22;12268;52.110;5.548;2022-12-20T01:12:14;13.20;99.90
24085;DHT22;12268;52.110;5.548;2022-12-20T01:14:40;13.30;99.90
24085;DHT22;12268;52.110;5.548;2022-12-20T01:17:05;13.20;99.90
24085;DHT22;12268;52.110;5.548;2022-12-20T01:19:31;13.20;99.90
24085;DHT22;12268;52.110;5.548;2022-12-20T01:21:56;13.20;99.90
24085;DHT22;12268;52.110;5.548;2022-12-20T01:24:22;13.20;99.90
24085;DHT22;12268;52.110;5.548;2022-12-20T01:26:48;13.10;99.90
24085;DHT22;12268;52.110;5.548;2022-12-20T01:29:14;13.00;99.90
24085;DHT22;12268;52.110;5.548;2022-12-20T01:31:40;13.00;99.90
24085;DHT22;12268;52.110;5.548;2022-12-20T01:34:05;12.90;99.90
24085;DHT22;12268;52.110;5.548;2022-12-20T01:36:33;12.80;99.90
24085;DHT22;12268;52.110;5.548;2022-12-20T01:39:02;12.80;99.90
24085;DHT22;12268;52.110;5.548;2022-12-20T01:41:29;12.70;99.90
24085;DHT22;12268;52.110;5.548;2022-12-20T01:46:44;12.40;99.90
24085;DHT22;12268;52.110;5.548;2022-12-20T01:51:52;12.20;99.90
24085;DHT22;12268;52.110;5.548;2022-12-20T01:54:33;12.10;99.90
24085;DHT22;12268;52.110;5.548;2022-12-20T01:57:06;12.00;99.90
24085;DHT22;12268;52.110;5.548;2022-12-20T01:59:35;12.00;99.90
24085;DHT22;12268;52.110;5.548;2022-12-20T02:02:04;12.00;99.90
24085;DHT22;12268;52.110;5.548;2022-12-20T02:04:31;12.00;99.90
24085;DHT22;12268;52.110;5.548;2022-12-20T02:06:58;11.90;99.90
24085;DHT22;12268;52.110;5.548;2022-12-20T02:09:24;11.90;99.90
24085;DHT22;12268;52.110;5.548;2022-12-20T02:12:10;12.00;99.90
24085;DHT22;12268;52.110;5.548;2022-12-20T02:26:00;12.10;99.90
24085;DHT22;12268;52.110;5.548;2022-12-20T02:31:05;12.20;99.90
24085;DHT22;12268;52.110;5.548;2022-12-20T02:33:32;12.10;99.90
24085;DHT22;12268;52.110;5.548;2022-12-20T02:35:57;12.10;99.90
24085;DHT22;12268;52.110;5.548;2022-12-20T02:38:34;12.20;99.90
24085;DHT22;12268;52.110;5.548;2022-12-20T02:41:25;12.10;99.90
24085;DHT22;12268;52.110;5.548;2022-12-20T02:44:02;12.10;99.90
24085;DHT22;12268;52.110;5.548;2022-12-20T02:46:48;12.00;99.90
24085;DHT22;12268;52.110;5.548;2022-12-20T02:49:17;12.00;99.90
24085;DHT22;12268;52.110;5.548;2022-12-20T02:51:47;12.10;99.90
24085;DHT22;12268;52.110;5.548;2022-12-20T02:54:16;12.20;99.90
24085;DHT22;12268;52.110;5.548;2022-12-20T02:56:53;12.20;99.90
24085;DHT22;12268;52.110;5.548;2022-12-20T02:59:32;12.20;99.90
24085;DHT22;12268;52.110;5.548;2022-12-20T03:02:01;12.40;99.90
24085;DHT22;12268;52.110;5.548;2022-12-20T03:04:29;12.40;99.90
24085;DHT22;12268;52.110;5.548;2022-12-20T03:07:04;12.60;99.90
24085;DHT22;12268;52.110;5.548;2022-12-20T03:09:31;12.50;99.90
24085;DHT22;12268;52.110;5.548;2022-12-20T03:11:57;12.50;99.90
24085;DHT22;12268;52.110;5.548;2022-12-20T03:14:23;12.50;99.90
24085;DHT22;12268;52.110;5.548;2022-12-20T03:16:49;12.40;99.90
24085;DHT22;12268;52.110;5.548;2022-12-20T03:19:14;12.50;99.90
24085;DHT22;12268;52.110;5.548;2022-12-20T03:21:40;12.50;99.90
24085;DHT22;12268;52.110;5.548;2022-12-20T03:24:06;12.60;99.90
24085;DHT22;12268;52.110;5.548;2022-12-20T03:26:31;12.50;99.90
24085;DHT22;12268;52.110;5.548;2022-12-20T03:28:57;12.50;99.90
24085;DHT22;12268;52.110;5.548;2022-12-20T03:31:22;12.50;99.90
24085;DHT22;12268;52.110;5.548;2022-12-20T03:33:48;12.50;99.90
24085;DHT22;12268;52.110;5.548;2022-12-20T03:36:13;12.50;99.90
24085;DHT22;12268;52.110;5.548;2022-12-20T03:38:39;12.50;99.90
24085;DHT22;12268;52.110;5.548;2022-12-20T03:41:05;12.50;99.90
24085;DHT22;12268;52.110;5.548;2022-12-20T03:43:30;12.40;99.90
24085;DHT22;12268;52.110;5.548;2022-12-20T03:45:57;12.40;99.90
24085;DHT22;12268;52.110;5.548;2022-12-20T03:48:22;12.40;99.90
24085;DHT22;12268;52.110;5.548;2022-12-20T03:50:48;12.40;99.90
24085;DHT22;12268;52.110;5.548;2022-12-20T03:53:13;12.60;99.90
24085;DHT22;12268;52.110;5.548;2022-12-20T03:55:39;12.70;99.90
24085;DHT22;12268;52.110;5.548;2022-12-20T03:58:05;12.70;99.90
24085;DHT22;12268;52.110;5.548;2022-12-20T04:00:30;12.70;99.90
24085;DHT22;12268;52.110;5.548;2022-12-20T04:02:56;12.70;99.90
24085;DHT22;12268;52.110;5.548;2022-12-20T04:05:21;12.70;99.90
24085;DHT22;12268;52.110;5.548;2022-12-20T04:07:47;12.70;99.90
24085;DHT22;12268;52.110;5.548;2022-12-20T04:10:12;12.80;99.90
24085;DHT22;12268;52.110;5.548;2022-12-20T04:12:38;12.80;99.90
24085;DHT22;12268;52.110;5.548;2022-12-20T04:15:04;12.70;99.90
24085;DHT22;12268;52.110;5.548;2022-12-20T04:17:29;12.70;99.90
24085;DHT22;12268;52.110;5.548;2022-12-20T04:19:55;12.70;99.90
24085;DHT22;12268;52.110;5.548;2022-12-20T04:22:20;12.70;99.90
24085;DHT22;12268;52.110;5.548;2022-12-20T04:24:46;12.80;99.90
24085;DHT22;12268;52.110;5.548;2022-12-20T04:27:12;12.90;99.90
24085;DHT22;12268;52.110;5.548;2022-12-20T04:29:37;12.80;99.90
24085;DHT22;12268;52.110;5.548;2022-12-20T04:32:03;12.70;99.90
24085;DHT22;12268;52.110;5.548;2022-12-20T04:34:28;12.80;99.90
24085;DHT22;12268;52.110;5.548;2022-12-20T04:36:54;12.80;99.90
24085;DHT22;12268;52.110;5.548;2022-12-20T04:39:19;12.70;99.90
24085;DHT22;12268;52.110;5.548;2022-12-20T04:41:45;12.80;99.90
24085;DHT22;12268;52.110;5.548;2022-12-20T04:44:10;12.90;99.90
24085;DHT22;12268;52.110;5.548;2022-12-20T04:46:37;12.80;99.90
24085;DHT22;12268;52.110;5.548;2022-12-20T04:49:03;12.60;99.90
24085;DHT22;12268;52.110;5.548;2022-12-20T04:51:28;12.80;99.90
24085;DHT22;12268;52.110;5.548;2022-12-20T04:53:54;12.70;99.90
24085;DHT22;12268;52.110;5.548;2022-12-20T04:56:26;12.70;99.90
24085;DHT22;12268;52.110;5.548;2022-12-20T04:58:54;12.80;99.90
24085;DHT22;12268;52.110;5.548;2022-12-20T05:01:20;12.80;99.90
24085;DHT22;12268;52.110;5.548;2022-12-20T05:03:47;12.80;99.90
24085;DHT22;12268;52.110;5.548;2022-12-20T05:06:13;12.80;99.90
24085;DHT22;12268;52.110;5.548;2022-12-20T05:08:39;12.50;99.90
24085;DHT22;12268;52.110;5.548;2022-12-20T05:11:06;12.10;99.90
24085;DHT22;12268;52.110;5.548;2022-12-20T05:13:32;12.20;99.90
24085;DHT22;12268;52.110;5.548;2022-12-20T05:15:57;12.20;99.90
24085;DHT22;12268;52.110;5.548;2022-12-20T05:18:24;12.30;99.90
24085;DHT22;12268;52.110;5.548;2022-12-20T05:20:50;12.30;99.90
24085;DHT22;12268;52.110;5.548;2022-12-20T05:23:38;12.40;99.90
24085;DHT22;12268;52.110;5.548;2022-12-20T05:26:23;12.30;99.90
24085;DHT22;12268;52.110;5.548;2022-12-20T05:28:49;12.40;99.90
24085;DHT22;12268;52.110;5.548;2022-12-20T05:31:15;12.50;99.90
24085;DHT22;12268;52.110;5.548;2022-12-20T05:33:40;12.40;99.90
24085;DHT22;12268;52.110;5.548;2022-12-20T05:36:06;12.40;99.90
24085;DHT22;12268;52.110;5.548;2022-12-20T05:38:31;12.30;99.90
24085;DHT22;12268;52.110;5.548;2022-12-20T05:40:57;12.30;99.90
24085;DHT22;12268;52.110;5.548;2022-12-20T05:43:23;12.40;99.90
24085;DHT22;12268;52.110;5.548;2022-12-20T05:45:52;12.40;99.90
24085;DHT22;12268;52.110;5.548;2022-12-20T05:48:18;12.40;99.90
24085;DHT22;12268;52.110;5.548;2022-12-20T05:50:47;12.50;99.90
24085;DHT22;12268;52.110;5.548;2022-12-20T05:53:14;12.60;99.90
24085;DHT22;12268;52.110;5.548;2022-12-20T05:55:47;12.70;99.90
24085;DHT22;12268;52.110;5.548;2022-12-20T05:58:13;12.60;99.90
24085;DHT22;12268;52.110;5.548;2022-12-20T06:00:42;12.50;99.90
24085;DHT22;12268;52.110;5.548;2022-12-20T06:03:09;12.50;99.90
24085;DHT22;12268;52.110;5.548;2022-12-20T06:05:36;12.60;99.90
24085;DHT22;12268;52.110;5.548;2022-12-20T06:08:03;12.70;99.90
24085;DHT22;12268;52.110;5.548;2022-12-20T06:10:29;12.70;99.90
24085;DHT22;12268;52.110;5.548;2022-12-20T06:12:55;12.60;99.90
24085;DHT22;12268;52.110;5.548;2022-12-20T06:15:21;12.60;99.90
24085;DHT22;12268;52.110;5.548;2022-12-20T06:17:46;12.70;99.90
24085;DHT22;12268;52.110;5.548;2022-12-20T06:20:12;12.80;99.90
24085;DHT22;12268;52.110;5.548;2022-12-20T06:22:37;12.90;99.90
24085;DHT22;12268;52.110;5.548;2022-12-20T06:25:04;13.00;99.90
24085;DHT22;12268;52.110;5.548;2022-12-20T06:27:30;13.00;99.90
24085;DHT22;12268;52.110;5.548;2022-12-20T06:29:55;13.00;99.90
24085;DHT22;12268;52.110;5.548;2022-12-20T06:32:21;13.10;99.90
24085;DHT22;12268;52.110;5.548;2022-12-20T06:34:46;13.10;99.90
24085;DHT22;12268;52.110;5.548;2022-12-20T06:37:12;13.30;99.90
24085;DHT22;12268;52.110;5.548;2022-12-20T06:39:37;13.40;99.90
24085;DHT22;12268;52.110;5.548;2022-12-20T06:42:03;13.50;99.90
24085;DHT22;12268;52.110;5.548;2022-12-20T06:44:29;13.50;99.90
24085;DHT22;12268;52.110;5.548;2022-12-20T06:46:54;13.50;99.90
24085;DHT22;12268;52.110;5.548;2022-12-20T06:49:20;13.40;99.90
24085;DHT22;12268;52.110;5.548;2022-12-20T06:51:46;13.30;99.90
24085;DHT22;12268;52.110;5.548;2022-12-20T06:54:12;13.30;99.90
24085;DHT22;12268;52.110;5.548;2022-12-20T06:56:37;13.40;99.90
24085;DHT22;12268;52.110;5.548;2022-12-20T06:59:04;13.40;99.90
24085;DHT22;12268;52.110;5.548;2022-12-20T07:01:29;13.50;99.90
24085;DHT22;12268;52.110;5.548;2022-12-20T07:03:55;13.50;99.90
24085;DHT22;12268;52.110;5.548;2022-12-20T07:06:20;13.40;99.90
24085;DHT22;12268;52.110;5.548;2022-12-20T07:08:46;13.40;99.90
24085;DHT22;12268;52.110;5.548;2022-12-20T07:11:11;13.50;99.90
24085;DHT22;12268;52.110;5.548;2022-12-20T07:13:37;13.50;99.90
24085;DHT22;12268;52.110;5.548;2022-12-20T07:16:03;13.60;99.90
24085;DHT22;12268;52.110;5.548;2022-12-20T07:18:29;13.60;99.90
24085;DHT22;12268;52.110;5.548;2022-12-20T07:21:02;13.60;99.90
24085;DHT22;12268;52.110;5.548;2022-12-20T07:23:28;13.70;99.90
24085;DHT22;12268;52.110;5.548;2022-12-20T07:25:54;13.60;99.90
24085;DHT22;12268;52.110;5.548;2022-12-20T07:28:21;13.60;99.90
24085;DHT22;12268;52.110;5.548;2022-12-20T07:30:47;13.60;99.90
24085;DHT22;12268;52.110;5.548;2022-12-20T07:33:12;13.70;99.90
24085;DHT22;12268;52.110;5.548;2022-12-20T07:35:38;13.70;99.90
24085;DHT22;12268;52.110;5.548;2022-12-20T07:38:04;13.70;99.90
24085;DHT22;12268;52.110;5.548;2022-12-20T07:40:30;13.70;99.90
24085;DHT22;12268;52.110;5.548;2022-12-20T07:42:55;13.70;99.90
24085;DHT22;12268;52.110;5.548;2022-12-20T07:45:21;13.80;99.90
24085;DHT22;12268;52.110;5.548;2022-12-20T07:47:46;13.70;99.90
24085;DHT22;12268;52.110;5.548;2022-12-20T07:50:12;13.60;99.90
24085;DHT22;12268;52.110;5.548;2022-12-20T07:52:39;13.50;99.90
24085;DHT22;12268;52.110;5.548;2022-12-20T07:55:07;13.40;99.90
24085;DHT22;12268;52.110;5.548;2022-12-20T07:57:46;13.40;99.90
24085;DHT22;12268;52.110;5.548;2022-12-20T08:00:14;13.50;99.90
24085;DHT22;12268;52.110;5.548;2022-12-20T08:02:48;13.40;99.90
24085;DHT22;12268;52.110;5.548;2022-12-20T08:05:16;13.30;99.90
24085;DHT22;12268;52.110;5.548;2022-12-20T08:07:42;13.50;99.90
24085;DHT22;12268;52.110;5.548;2022-12-20T08:10:10;13.30;99.90
24085;DHT22;12268;52.110;5.548;2022-12-20T08:12:37;13.30;99.90
24085;DHT22;12268;52.110;5.548;2022-12-20T08:15:04;13.20;99.90
24085;DHT22;12268;52.110;5.548;2022-12-20T08:17:30;13.20;99.90
24085;DHT22;12268;52.110;5.548;2022-12-20T08:19:55;13.20;99.90
24085;DHT22;12268;52.110;5.548;2022-12-20T08:22:21;13.00;99.90
24085;DHT22;12268;52.110;5.548;2022-12-20T08:24:47;13.00;99.90
24085;DHT22;12268;52.110;5.548;2022-12-20T08:27:13;13.10;99.90
24085;DHT22;12268;52.110;5.548;2022-12-20T08:29:39;13.10;99.90
24085;DHT22;12268;52.110;5.548;2022-12-20T08:32:05;13.10;99.90
24085;DHT22;12268;52.110;5.548;2022-12-20T08:34:30;13.10;99.90
24085;DHT22;12268;52.110;5.548;2022-12-20T08:36:56;13.00;99.90
24085;DHT22;12268;52.110;5.548;2022-12-20T08:39:21;13.00;99.90
24085;DHT22;12268;52.110;5.548;2022-12-20T08:41:47;12.90;99.90
24085;DHT22;12268;52.110;5.548;2022-12-20T08:44:12;13.10;99.90
24085;DHT22;12268;52.110;5.548;2022-12-20T08:46:38;13.10;99.90
24085;DHT22;12268;52.110;5.548;2022-12-20T08:49:04;12.90;99.90
24085;DHT22;12268;52.110;5.548;2022-12-20T08:51:30;12.80;99.90
24085;DHT22;12268;52.110;5.548;2022-12-20T08:53:56;12.90;99.90
24085;DHT22;12268;52.110;5.548;2022-12-20T08:56:21;12.90;99.90
24085;DHT22;12268;52.110;5.548;2022-12-20T08:58:47;12.90;99.90
24085;DHT22;12268;52.110;5.548;2022-12-20T09:01:15;12.80;99.90
24085;DHT22;12268;52.110;5.548;2022-12-20T09:03:41;12.80;99.90
24085;DHT22;12268;52.110;5.548;2022-12-20T09:06:10;12.60;99.90
24085;DHT22;12268;52.110;5.548;2022-12-20T09:08:37;12.50;99.90
24085;DHT22;12268;52.110;5.548;2022-12-20T09:11:24;12.50;99.90
24085;DHT22;12268;52.110;5.548;2022-12-20T09:13:53;12.40;99.90
24085;DHT22;12268;52.110;5.548;2022-12-20T09:16:20;12.40;99.90
24085;DHT22;12268;52.110;5.548;2022-12-20T09:18:51;12.30;99.90
24085;DHT22;12268;52.110;5.548;2022-12-20T09:21:17;12.40;99.90
24085;DHT22;12268;52.110;5.548;2022-12-20T09:23:43;12.40;99.90
24085;DHT22;12268;52.110;5.548;2022-12-20T09:26:14;12.50;99.90
24085;DHT22;12268;52.110;5.548;2022-12-20T09:28:40;12.50;99.90
24085;DHT22;12268;52.110;5.548;2022-12-20T09:31:09;12.30;99.90
24085;DHT22;12268;52.110;5.548;2022-12-20T09:33:35;12.30;99.90
24085;DHT22;12268;52.110;5.548;2022-12-20T09:36:01;12.30;99.90
24085;DHT22;12268;52.110;5.548;2022-12-20T09:38:28;12.20;99.90
24085;DHT22;12268;52.110;5.548;2022-12-20T09:41:00;12.20;99.90
24085;DHT22;12268;52.110;5.548;2022-12-20T09:43:27;12.20;99.90
24085;DHT22;12268;52.110;5.548;2022-12-20T09:45:55;12.30;99.90
24085;DHT22;12268;52.110;5.548;2022-12-20T09:48:29;12.30;99.90
24085;DHT22;12268;52.110;5.548;2022-12-20T09:53:32;12.20;99.90
24085;DHT22;12268;52.110;5.548;2022-12-20T09:56:27;12.10;99.90
24085;DHT22;12268;52.110;5.548;2022-12-20T10:01:31;12.20;99.90
24085;DHT22;12268;52.110;5.548;2022-12-20T10:04:01;12.20;99.90
24085;DHT22;12268;52.110;5.548;2022-12-20T10:17:30;12.20;99.90
24085;DHT22;12268;52.110;5.548;2022-12-20T10:22:32;12.20;99.90
24085;DHT22;12268;52.110;5.548;2022-12-20T10:25:18;12.20;99.90
24085;DHT22;12268;52.110;5.548;2022-12-20T10:27:45;12.20;99.90
24085;DHT22;12268;52.110;5.548;2022-12-20T10:30:19;12.10;99.90
24085;DHT22;12268;52.110;5.548;2022-12-20T10:32:47;12.20;99.90
24085;DHT22;12268;52.110;5.548;2022-12-20T10:40:30;12.10;99.90
24085;DHT22;12268;52.110;5.548;2022-12-20T10:42:57;12.10;99.90
24085;DHT22;12268;52.110;5.548;2022-12-20T10:45:33;12.10;99.90
24085;DHT22;12268;52.110;5.548;2022-12-20T10:48:02;12.00;99.90
24085;DHT22;12268;52.110;5.548;2022-12-20T10:50:29;11.90;99.90
24085;DHT22;12268;52.110;5.548;2022-12-20T10:53:19;11.90;99.90
24085;DHT22;12268;52.110;5.548;2022-12-20T10:55:45;12.10;99.90
24085;DHT22;12268;52.110;5.548;2022-12-20T10:58:18;12.00;99.90
24085;DHT22;12268;52.110;5.548;2022-12-20T11:00:46;12.10;99.90
24085;DHT22;12268;52.110;5.548;2022-12-20T11:03:21;12.20;99.90
24085;DHT22;12268;52.110;5.548;2022-12-20T11:05:58;12.20;99.90
24085;DHT22;12268;52.110;5.548;2022-12-20T11:08:26;12.20;99.90
24085;DHT22;12268;52.110;5.548;2022-12-20T11:11:15;12.10;99.90
24085;DHT22;12268;52.110;5.548;2022-12-20T11:13:42;12.20;99.90
24085;DHT22;12268;52.110;5.548;2022-12-20T11:16:41;12.20;99.90
24085;DHT22;12268;52.110;5.548;2022-12-20T11:19:35;12.20;99.90
24085;DHT22;12268;52.110;5.548;2022-12-20T11:27:50;12.00;99.90
24085;DHT22;12268;52.110;5.548;2022-12-20T11:30:22;12.10;99.90
24085;DHT22;12268;52.110;5.548;2022-12-20T11:33:22;12.20;99.90
24085;DHT22;12268;52.110;5.548;2022-12-20T11:36:02;12.30;99.90
24085;DHT22;12268;52.110;5.548;2022-12-20T11:38:42;12.30;99.90
24085;DHT22;12268;52.110;5.548;2022-12-20T11:41:15;12.40;99.90
24085;DHT22;12268;52.110;5.548;2022-12-20T11:47:05;12.40;99.90
24085;DHT22;12268;52.110;5.548;2022-12-20T11:52:51;12.30;99.90
24085;DHT22;12268;52.110;5.548;2022-12-20T11:55:24;12.40;99.90
24085;DHT22;12268;52.110;5.548;2022-12-20T12:00:27;12.50;99.90
24085;DHT22;12268;52.110;5.548;2022-12-20T12:02:57;12.60;99.90
24085;DHT22;12268;52.110;5.548;2022-12-20T12:05:42;12.70;99.90
24085;DHT22;12268;52.110;5.548;2022-12-20T12:08:33;12.60;99.90
24085;DHT22;12268;52.110;5.548;2022-12-20T12:11:28;12.60;99.90
24085;DHT22;12268;52.110;5.548;2022-12-20T12:13:52;12.40;99.90
24085;DHT22;12268;52.110;5.548;2022-12-20T12:16:28;12.50;99.90
24085;DHT22;12268;52.110;5.548;2022-12-20T12:18:58;12.60;99.90
24085;DHT22;12268;52.110;5.548;2022-12-20T12:21:26;12.60;99.90
24085;DHT22;12268;52.110;5.548;2022-12-20T12:24:08;12.70;99.90
24085;DHT22;12268;52.110;5.548;2022-12-20T12:26:38;12.70;99.90
24085;DHT22;12268;52.110;5.548;2022-12-20T12:29:12;12.80;99.90
24085;DHT22;12268;52.110;5.548;2022-12-20T12:34:44;12.90;99.90
24085;DHT22;12268;52.110;5.548;2022-12-20T12:45:56;12.80;99.90
24085;DHT22;12268;52.110;5.548;2022-12-20T12:48:47;12.90;99.90
24085;DHT22;12268;52.110;5.548;2022-12-20T12:51:22;13.00;99.90
24085;DHT22;12268;52.110;5.548;2022-12-20T12:53:51;12.90;99.90
24085;DHT22;12268;52.110;5.548;2022-12-20T13:01:53;12.90;99.90
24085;DHT22;12268;52.110;5.548;2022-12-20T13:06:56;12.90;99.90
24085;DHT22;12268;52.110;5.548;2022-12-20T13:11:53;13.00;99.90
24085;DHT22;12268;52.110;5.548;2022-12-20T13:16:52;13.10;99.90
24085;DHT22;12268;52.110;5.548;2022-12-20T13:21:56;13.10;99.90
24085;DHT22;12268;52.110;5.548;2022-12-20T13:24:35;13.10;99.90
24085;DHT22;12268;52.110;5.548;2022-12-20T13:27:02;13.10;99.90
24085;DHT22;12268;52.110;5.548;2022-12-20T13:29:33;13.10;99.90
24085;DHT22;12268;52.110;5.548;2022-12-20T13:32:00;13.10;99.90
24085;DHT22;12268;52.110;5.548;2022-12-20T13:34:38;13.20;99.90
24085;DHT22;12268;52.110;5.548;2022-12-20T13:37:50;13.20;99.90
24085;DHT22;12268;52.110;5.548;2022-12-20T13:45:48;13.20;99.90
24085;DHT22;12268;52.110;5.548;2022-12-20T13:48:18;13.20;99.90
24085;DHT22;12268;52.110;5.548;2022-12-20T13:50:52;13.10;99.90
24085;DHT22;12268;52.110;5.548;2022-12-20T13:53:26;13.10;99.90
24085;DHT22;12268;52.110;5.548;2022-12-20T13:55:52;13.10;99.90
24085;DHT22;12268;52.110;5.548;2022-12-20T13:58:31;13.10;99.90
24085;DHT22;12268;52.110;5.548;2022-12-20T14:01:06;12.90;99.90
24085;DHT22;12268;52.110;5.548;2022-12-20T14:03:32;12.80;99.90
24085;DHT22;12268;52.110;5.548;2022-12-20T14:06:00;12.90;99.90
24085;DHT22;12268;52.110;5.548;2022-12-20T14:08:32;13.10;99.90
24085;DHT22;12268;52.110;5.548;2022-12-20T14:13:33;13.20;99.90
24085;DHT22;12268;52.110;5.548;2022-12-20T14:16:09;13.30;99.90
24085;DHT22;12268;52.110;5.548;2022-12-20T14:18:34;13.20;99.90
24085;DHT22;12268;52.110;5.548;2022-12-20T14:21:03;13.20;99.90
24085;DHT22;12268;52.110;5.548;2022-12-20T14:23:44;13.20;99.90
24085;DHT22;12268;52.110;5.548;2022-12-20T14:26:14;13.30;99.90
24085;DHT22;12268;52.110;5.548;2022-12-20T14:28:43;13.20;99.90
24085;DHT22;12268;52.110;5.548;2022-12-20T14:36:47;13.10;99.90
24085;DHT22;12268;52.110;5.548;2022-12-20T14:39:33;13.00;99.90
24085;DHT22;12268;52.110;5.548;2022-12-20T14:44:31;13.10;99.90
24085;DHT22;12268;52.110;5.548;2022-12-20T14:47:12;13.10;99.90
24085;DHT22;12268;52.110;5.548;2022-12-20T14:49:39;13.20;99.90
24085;DHT22;12268;52.110;5.548;2022-12-20T14:52:19;13.00;99.90
24085;DHT22;12268;52.110;5.548;2022-12-20T14:54:47;13.00;99.90
24085;DHT22;12268;52.110;5.548;2022-12-20T14:57:28;13.10;99.90
24085;DHT22;12268;52.110;5.548;2022-12-20T15:00:01;13.00;99.90
24085;DHT22;12268;52.110;5.548;2022-12-20T15:02:38;13.10;99.90
24085;DHT22;12268;52.110;5.548;2022-12-20T15:05:09;13.10;99.90
24085;DHT22;12268;52.110;5.548;2022-12-20T15:07:53;13.10;99.90
24085;DHT22;12268;52.110;5.548;2022-12-20T15:10:19;13.10;99.90
24085;DHT22;12268;52.110;5.548;2022-12-20T15:12:44;13.10;99.90
24085;DHT22;12268;52.110;5.548;2022-12-20T15:15:15;13.00;99.90
24085;DHT22;12268;52.110;5.548;2022-12-20T15:17:40;12.90;99.90
24085;DHT22;12268;52.110;5.548;2022-12-20T15:20:11;12.90;99.90
24085;DHT22;12268;52.110;5.548;2022-12-20T15:22:37;13.00;99.90
24085;DHT22;12268;52.110;5.548;2022-12-20T15:25:13;13.00;99.90
24085;DHT22;12268;52.110;5.548;2022-12-20T15:27:40;13.00;99.90
24085;DHT22;12268;52.110;5.548;2022-12-20T15:30:11;12.90;99.90
24085;DHT22;12268;52.110;5.548;2022-12-20T15:32:38;13.00;99.90
24085;DHT22;12268;52.110;5.548;2022-12-20T15:35:10;12.90;99.90
24085;DHT22;12268;52.110;5.548;2022-12-20T15:37:36;12.80;99.90
24085;DHT22;12268;52.110;5.548;2022-12-20T15:40:02;12.80;99.90
24085;DHT22;12268;52.110;5.548;2022-12-20T15:42:27;12.90;99.90
24085;DHT22;12268;52.110;5.548;2022-12-20T15:44:53;13.10;99.90
24085;DHT22;12268;52.110;5.548;2022-12-20T15:47:18;13.10;99.90
24085;DHT22;12268;52.110;5.548;2022-12-20T15:49:44;13.20;99.90
24085;DHT22;12268;52.110;5.548;2022-12-20T15:52:19;13.20;99.90
24085;DHT22;12268;52.110;5.548;2022-12-20T15:54:45;13.10;99.90
24085;DHT22;12268;52.110;5.548;2022-12-20T15:57:12;13.30;99.90
24085;DHT22;12268;52.110;5.548;2022-12-20T15:59:38;13.20;99.90
24085;DHT22;12268;52.110;5.548;2022-12-20T16:02:25;13.20;99.90
24085;DHT22;12268;52.110;5.548;2022-12-20T16:04:52;13.10;99.90
24085;DHT22;12268;52.110;5.548;2022-12-20T16:07:18;13.10;99.90
24085;DHT22;12268;52.110;5.548;2022-12-20T16:09:44;13.10;99.90
24085;DHT22;12268;52.110;5.548;2022-12-20T16:12:20;13.20;99.90
24085;DHT22;12268;52.110;5.548;2022-12-20T16:14:46;13.30;99.90
24085;DHT22;12268;52.110;5.548;2022-12-20T16:17:13;13.20;99.90
24085;DHT22;12268;52.110;5.548;2022-12-20T16:19:39;13.10;99.90
24085;DHT22;12268;52.110;5.548;2022-12-20T16:22:05;13.20;99.90
24085;DHT22;12268;52.110;5.548;2022-12-20T16:24:30;13.40;99.90
24085;DHT22;12268;52.110;5.548;2022-12-20T16:26:56;13.40;99.90
24085;DHT22;12268;52.110;5.548;2022-12-20T16:29:21;13.30;99.90
24085;DHT22;12268;52.110;5.548;2022-12-20T16:31:47;13.40;99.90
24085;DHT22;12268;52.110;5.548;2022-12-20T16:34:14;13.20;99.90
24085;DHT22;12268;52.110;5.548;2022-12-20T16:36:41;13.10;99.90
24085;DHT22;12268;52.110;5.548;2022-12-20T16:39:07;13.10;99.90
24085;DHT22;12268;52.110;5.548;2022-12-20T16:41:35;13.10;99.90
24085;DHT22;12268;52.110;5.548;2022-12-20T16:44:02;13.20;99.90
24085;DHT22;12268;52.110;5.548;2022-12-20T16:46:30;13.40;99.90
24085;DHT22;12268;52.110;5.548;2022-12-20T16:48:57;13.30;99.90
24085;DHT22;12268;52.110;5.548;2022-12-20T16:51:30;13.40;99.90
24085;DHT22;12268;52.110;5.548;2022-12-20T16:54:04;13.50;99.90
24085;DHT22;12268;52.110;5.548;2022-12-20T16:56:30;13.40;99.90
24085;DHT22;12268;52.110;5.548;2022-12-20T16:58:56;13.40;99.90
24085;DHT22;12268;52.110;5.548;2022-12-20T17:01:33;13.20;99.90
24085;DHT22;12268;52.110;5.548;2022-12-20T17:04:00;13.30;99.90
24085;DHT22;12268;52.110;5.548;2022-12-20T17:06:26;13.40;99.90
24085;DHT22;12268;52.110;5.548;2022-12-20T17:08:51;13.30;99.90
24085;DHT22;12268;52.110;5.548;2022-12-20T17:13:44;13.10;99.90
24085;DHT22;12268;52.110;5.548;2022-12-20T17:16:11;13.20;99.90
24085;DHT22;12268;52.110;5.548;2022-12-20T17:18:44;13.30;99.90
24085;DHT22;12268;52.110;5.548;2022-12-20T17:21:21;13.30;99.90
24085;DHT22;12268;52.110;5.548;2022-12-20T17:23:48;13.30;99.90
24085;DHT22;12268;52.110;5.548;2022-12-20T17:26:16;13.30;99.90